This is the latest recevied weather packets stored in our database for station/object M0XDC. If no packets are shown the sender has not sent any weather packets the latest 10 day(s).
| Time | Temp. | Humidity | Pressure | Rain* | Wind** | Luminosity | Snow |
|---|---|---|---|---|---|---|---|
| 1777686214 | 11.67° C | 79% | 1016.5 hPa | 0 mm | - | - | - |
| 1777686154 | 11.67° C | 79% | 1016.4 hPa | 0 mm | - | - | - |
| 1777686067 | 11.67° C | 78% | 1016.4 hPa | 0 mm | - | - | - |
| 1777685947 | 11.67° C | 78% | 1016.5 hPa | 0 mm | - | - | - |
| 1777685898 | 11.67° C | 78% | 1016.4 hPa | 0 mm | - | - | - |
| 1777685703 | 11.67° C | 78% | 1016.5 hPa | 0 mm | - | - | - |
| 1777684057 | 13.33° C | 74% | 1016.8 hPa | 0 mm | - | - | - |
| 1777682257 | 13.89° C | 72% | 1017.2 hPa | 0 mm | - | - | - |
| 1777680457 | 15° C | 69% | 1017.1 hPa | 0 mm | - | - | - |
| 1777678657 | 15° C | 70% | 1017.4 hPa | 0 mm | - | - | - |
| 1777676857 | 15.56° C | 74% | 1017.4 hPa | 0 mm | - | - | - |
| 1777675057 | 16.11° C | 70% | 1017.6 hPa | 0 mm | - | - | - |
| 1777673257 | 16.67° C | 70% | 1017.3 hPa | 0 mm | - | - | - |
| 1777671457 | 16.67° C | 69% | 1017.3 hPa | 0 mm | - | - | - |
| 1777669657 | 17.22° C | 68% | 1017.5 hPa | 0 mm | - | - | - |
| 1777667857 | 17.22° C | 69% | 1017.4 hPa | 0 mm | - | - | - |
| 1777666057 | 17.78° C | 67% | 1017.3 hPa | 0 mm | - | - | - |
| 1777664257 | 18.33° C | 65% | 1017.1 hPa | 0 mm | - | - | - |
| 1777662458 | 18.89° C | 63% | 1016.8 hPa | 0 mm | - | - | - |
| 1777660657 | 20° C | 60% | 1016.7 hPa | 0 mm | - | - | - |
| 1777658857 | 20.56° C | 59% | 1016.7 hPa | 0 mm | - | - | - |
| 1777657057 | 21.11° C | 60% | 1016.6 hPa | 0 mm | - | - | - |
| 1777655257 | 22.22° C | 53% | 1016.5 hPa | 0 mm | - | - | - |
| 1777653457 | 23.33° C | 50% | 1016.4 hPa | 0 mm | - | - | - |
| 1777651657 | 23.89° C | 45% | 1016.8 hPa | 0 mm | - | - | - |
* Rain latest hour (hover to see other rain measurements)
** Current wind speed in m/s (hover to see current wind gust speed)